sensor_id;sensor_type;location;lat;lon;timestamp;pressure;altitude;pressure_sealevel;temperature;humidity
53858;BME280;39763;51.188;6.690;2023-03-15T00:00:22;100839.44;;;5.96;66.43
53858;BME280;39763;51.188;6.690;2023-03-15T00:01:54;100850.69;;;6.01;66.09
53858;BME280;39763;51.188;6.690;2023-03-15T00:03:26;100855.91;;;6.01;66.80
53858;BME280;39763;51.188;6.690;2023-03-15T00:04:59;100856.69;;;6.08;66.53
53858;BME280;39763;51.188;6.690;2023-03-15T00:06:31;100858.31;;;6.17;66.10
53858;BME280;39763;51.188;6.690;2023-03-15T00:08:04;100855.66;;;6.21;66.04
53858;BME280;39763;51.188;6.690;2023-03-15T00:09:36;100868.63;;;6.24;66.22
53858;BME280;39763;51.188;6.690;2023-03-15T00:11:07;100865.13;;;6.27;66.07
53858;BME280;39763;51.188;6.690;2023-03-15T00:12:39;100865.03;;;6.34;65.88
53858;BME280;39763;51.188;6.690;2023-03-15T00:14:13;100871.91;;;6.38;66.37
53858;BME280;39763;51.188;6.690;2023-03-15T00:15:45;100870.09;;;6.45;66.23
53858;BME280;39763;51.188;6.690;2023-03-15T00:17:17;100864.81;;;6.50;66.32
53858;BME280;39763;51.188;6.690;2023-03-15T00:18:49;100870.78;;;6.56;66.07
53858;BME280;39763;51.188;6.690;2023-03-15T00:20:22;100879.47;;;6.58;66.16
53858;BME280;39763;51.188;6.690;2023-03-15T00:21:53;100869.91;;;6.59;66.72
53858;BME280;39763;51.188;6.690;2023-03-15T00:23:25;100881.97;;;6.66;66.78
53858;BME280;39763;51.188;6.690;2023-03-15T00:24:56;100876.66;;;6.70;66.70
53858;BME280;39763;51.188;6.690;2023-03-15T00:26:28;100874.88;;;6.76;66.65
53858;BME280;39763;51.188;6.690;2023-03-15T00:27:59;100874.88;;;6.74;67.13
53858;BME280;39763;51.188;6.690;2023-03-15T00:29:31;100885.38;;;6.69;67.31
53858;BME280;39763;51.188;6.690;2023-03-15T00:31:04;100882.75;;;6.72;67.35
53858;BME280;39763;51.188;6.690;2023-03-15T00:32:35;100881.78;;;6.78;67.55
53858;BME280;39763;51.188;6.690;2023-03-15T00:34:08;100883.63;;;6.71;68.03
53858;BME280;39763;51.188;6.690;2023-03-15T00:35:41;100876.84;;;6.58;68.43
53858;BME280;39763;51.188;6.690;2023-03-15T00:37:13;100890.81;;;6.56;68.83
53858;BME280;39763;51.188;6.690;2023-03-15T00:38:47;100886.44;;;6.56;68.86
53858;BME280;39763;51.188;6.690;2023-03-15T00:40:18;100890.94;;;6.48;69.32
53858;BME280;39763;51.188;6.690;2023-03-15T00:41:50;100891.16;;;6.30;70.03
53858;BME280;39763;51.188;6.690;2023-03-15T00:43:23;100889.56;;;6.20;70.73
53858;BME280;39763;51.188;6.690;2023-03-15T00:44:55;100890.47;;;6.16;70.75
53858;BME280;39763;51.188;6.690;2023-03-15T00:46:27;100882.59;;;6.22;70.91
53858;BME280;39763;51.188;6.690;2023-03-15T00:47:58;100882.53;;;6.23;70.96
53858;BME280;39763;51.188;6.690;2023-03-15T00:49:31;100895.56;;;6.25;71.02
53858;BME280;39763;51.188;6.690;2023-03-15T00:51:07;100899.06;;;6.24;71.19
53858;BME280;39763;51.188;6.690;2023-03-15T00:52:39;100881.66;;;6.26;70.92
53858;BME280;39763;51.188;6.690;2023-03-15T00:54:12;100888.50;;;6.36;70.68
53858;BME280;39763;51.188;6.690;2023-03-15T00:55:44;100885.72;;;6.48;70.73
53858;BME280;39763;51.188;6.690;2023-03-15T00:57:15;100885.50;;;6.62;70.63
53858;BME280;39763;51.188;6.690;2023-03-15T00:58:47;100885.31;;;6.74;70.63
53858;BME280;39763;51.188;6.690;2023-03-15T01:00:19;100886.03;;;6.84;69.93
53858;BME280;39763;51.188;6.690;2023-03-15T01:01:53;100879.91;;;6.86;69.64
53858;BME280;39763;51.188;6.690;2023-03-15T01:03:25;100880.78;;;6.87;69.10
53858;BME280;39763;51.188;6.690;2023-03-15T01:04:58;100888.56;;;6.90;69.40
53858;BME280;39763;51.188;6.690;2023-03-15T01:06:31;100887.72;;;6.88;69.51
53858;BME280;39763;51.188;6.690;2023-03-15T01:08:03;100891.16;;;6.91;70.01
53858;BME280;39763;51.188;6.690;2023-03-15T01:09:35;100891.09;;;6.96;69.89
53858;BME280;39763;51.188;6.690;2023-03-15T01:11:09;100891.88;;;7.01;69.88
53858;BME280;39763;51.188;6.690;2023-03-15T01:12:41;100890.00;;;7.09;69.67
53858;BME280;39763;51.188;6.690;2023-03-15T01:14:13;100887.28;;;7.15;69.17
53858;BME280;39763;51.188;6.690;2023-03-15T01:15:45;100897.84;;;7.09;69.37
53858;BME280;39763;51.188;6.690;2023-03-15T01:17:17;100897.09;;;7.01;69.58
53858;BME280;39763;51.188;6.690;2023-03-15T01:18:48;100888.41;;;6.99;69.44
53858;BME280;39763;51.188;6.690;2023-03-15T01:20:23;100905.28;;;6.80;69.84
53858;BME280;39763;51.188;6.690;2023-03-15T01:21:56;100903.59;;;6.76;70.08
53858;BME280;39763;51.188;6.690;2023-03-15T01:23:27;100897.47;;;6.77;70.37
53858;BME280;39763;51.188;6.690;2023-03-15T01:25:00;100899.16;;;6.81;70.31
53858;BME280;39763;51.188;6.690;2023-03-15T01:26:32;100893.06;;;6.82;70.20
53858;BME280;39763;51.188;6.690;2023-03-15T01:28:04;100899.22;;;6.76;70.13
53858;BME280;39763;51.188;6.690;2023-03-15T01:29:35;100904.41;;;6.79;70.36
53858;BME280;39763;51.188;6.690;2023-03-15T01:31:08;100897.41;;;6.81;70.29
53858;BME280;39763;51.188;6.690;2023-03-15T01:32:46;100900.81;;;6.85;70.11
53858;BME280;39763;51.188;6.690;2023-03-15T01:34:17;100906.91;;;6.85;70.05
53858;BME280;39763;51.188;6.690;2023-03-15T01:35:56;100908.53;;;6.94;70.02
53858;BME280;39763;51.188;6.690;2023-03-15T01:37:30;100902.22;;;7.07;69.70
53858;BME280;39763;51.188;6.690;2023-03-15T01:39:01;100907.41;;;7.10;69.49
53858;BME280;39763;51.188;6.690;2023-03-15T01:40:44;100908.19;;;7.15;69.35
53858;BME280;39763;51.188;6.690;2023-03-15T01:42:17;100910.78;;;7.15;69.00
53858;BME280;39763;51.188;6.690;2023-03-15T01:43:49;100919.47;;;7.17;69.00
53858;BME280;39763;51.188;6.690;2023-03-15T01:47:11;100910.69;;;7.21;68.76
53858;BME280;39763;51.188;6.690;2023-03-15T01:48:44;100915.03;;;7.22;68.79
53858;BME280;39763;51.188;6.690;2023-03-15T01:50:23;100911.53;;;7.23;68.53
53858;BME280;39763;51.188;6.690;2023-03-15T01:51:56;100915.88;;;7.24;68.71
53858;BME280;39763;51.188;6.690;2023-03-15T01:53:33;100913.28;;;7.24;68.75
53858;BME280;39763;51.188;6.690;2023-03-15T01:55:07;100915.09;;;7.19;68.54
53858;BME280;39763;51.188;6.690;2023-03-15T01:56:46;100915.97;;;7.18;68.23
53858;BME280;39763;51.188;6.690;2023-03-15T01:58:20;100916.13;;;7.09;68.84
53858;BME280;39763;51.188;6.690;2023-03-15T01:59:53;100918.75;;;7.09;68.53
53858;BME280;39763;51.188;6.690;2023-03-15T02:01:26;100920.59;;;7.01;68.84
53858;BME280;39763;51.188;6.690;2023-03-15T02:02:59;100928.50;;;6.96;69.08
53858;BME280;39763;51.188;6.690;2023-03-15T02:04:35;100922.50;;;6.90;69.65
53858;BME280;39763;51.188;6.690;2023-03-15T02:06:08;100918.13;;;6.92;69.72
53858;BME280;39763;51.188;6.690;2023-03-15T02:07:54;100917.34;;;6.85;69.35
53858;BME280;39763;51.188;6.690;2023-03-15T02:09:34;100912.28;;;6.75;69.42
53858;BME280;39763;51.188;6.690;2023-03-15T02:11:06;100919.31;;;6.69;69.69
53858;BME280;39763;51.188;6.690;2023-03-15T02:12:39;100921.19;;;6.60;69.84
53858;BME280;39763;51.188;6.690;2023-03-15T02:14:13;100922.19;;;6.53;70.13
53858;BME280;39763;51.188;6.690;2023-03-15T02:15:47;100924.00;;;6.46;70.51
53858;BME280;39763;51.188;6.690;2023-03-15T02:17:27;100924.84;;;6.48;70.70
53858;BME280;39763;51.188;6.690;2023-03-15T02:19:02;100925.59;;;6.55;70.56
53858;BME280;39763;51.188;6.690;2023-03-15T02:20:36;100928.19;;;6.56;70.13
53858;BME280;39763;51.188;6.690;2023-03-15T02:22:15;100918.66;;;6.55;70.14
53858;BME280;39763;51.188;6.690;2023-03-15T02:23:52;100924.84;;;6.48;69.73
53858;BME280;39763;51.188;6.690;2023-03-15T02:25:32;100918.94;;;6.35;69.76
53858;BME280;39763;51.188;6.690;2023-03-15T02:27:07;100932.91;;;6.28;70.09
53858;BME280;39763;51.188;6.690;2023-03-15T02:28:40;100923.50;;;6.17;70.34
53858;BME280;39763;51.188;6.690;2023-03-15T02:30:12;100934.06;;;6.08;70.86
53858;BME280;39763;51.188;6.690;2023-03-15T02:31:45;100928.91;;;6.01;71.40
53858;BME280;39763;51.188;6.690;2023-03-15T02:33:18;100938.50;;;5.95;71.44
53858;BME280;39763;51.188;6.690;2023-03-15T02:34:51;100935.84;;;6.01;71.37
53858;BME280;39763;51.188;6.690;2023-03-15T02:36:23;100943.56;;;6.10;71.52
53858;BME280;39763;51.188;6.690;2023-03-15T02:37:55;100943.50;;;6.16;71.20
53858;BME280;39763;51.188;6.690;2023-03-15T02:39:27;100943.53;;;6.13;71.04
53858;BME280;39763;51.188;6.690;2023-03-15T02:40:58;100940.84;;;6.21;71.57
53858;BME280;39763;51.188;6.690;2023-03-15T02:42:30;100935.50;;;6.30;71.21
53858;BME280;39763;51.188;6.690;2023-03-15T02:44:04;100937.13;;;6.38;70.93
53858;BME280;39763;51.188;6.690;2023-03-15T02:45:37;100949.28;;;6.40;70.65
53858;BME280;39763;51.188;6.690;2023-03-15T02:47:09;100946.72;;;6.38;70.57
53858;BME280;39763;51.188;6.690;2023-03-15T02:48:41;100953.59;;;6.44;70.84
53858;BME280;39763;51.188;6.690;2023-03-15T02:50:13;100948.31;;;6.50;70.59
53858;BME280;39763;51.188;6.690;2023-03-15T02:51:44;100946.44;;;6.58;70.54
53858;BME280;39763;51.188;6.690;2023-03-15T02:53:16;100945.69;;;6.51;70.24
53858;BME280;39763;51.188;6.690;2023-03-15T02:54:48;100943.09;;;6.48;69.86
53858;BME280;39763;51.188;6.690;2023-03-15T02:56:20;100948.31;;;6.48;70.57
53858;BME280;39763;51.188;6.690;2023-03-15T02:57:51;100957.84;;;6.52;70.21
53858;BME280;39763;51.188;6.690;2023-03-15T02:59:25;100952.63;;;6.52;70.14
53858;BME280;39763;51.188;6.690;2023-03-15T03:00:57;100954.28;;;6.56;70.11
53858;BME280;39763;51.188;6.690;2023-03-15T03:02:28;100951.78;;;6.52;69.73
53858;BME280;39763;51.188;6.690;2023-03-15T03:04:00;100955.31;;;6.46;69.86
53858;BME280;39763;51.188;6.690;2023-03-15T03:05:32;100963.19;;;6.40;69.70
53858;BME280;39763;51.188;6.690;2023-03-15T03:07:03;100958.03;;;6.37;70.06
53858;BME280;39763;51.188;6.690;2023-03-15T03:08:42;100961.56;;;6.33;70.19
53858;BME280;39763;51.188;6.690;2023-03-15T03:10:19;100959.84;;;6.30;70.76
53858;BME280;39763;51.188;6.690;2023-03-15T03:12:00;100969.38;;;6.33;70.43
53858;BME280;39763;51.188;6.690;2023-03-15T03:13:34;100972.00;;;6.33;70.51
53858;BME280;39763;51.188;6.690;2023-03-15T03:15:10;100973.72;;;6.34;70.52
53858;BME280;39763;51.188;6.690;2023-03-15T03:16:41;100971.03;;;6.38;70.29
53858;BME280;39763;51.188;6.690;2023-03-15T03:18:13;100984.03;;;6.45;70.32
53858;BME280;39763;51.188;6.690;2023-03-15T03:19:45;100980.56;;;6.44;70.03
53858;BME280;39763;51.188;6.690;2023-03-15T03:21:18;100991.00;;;6.43;69.98
53858;BME280;39763;51.188;6.690;2023-03-15T03:22:50;100987.59;;;6.38;70.45
53858;BME280;39763;51.188;6.690;2023-03-15T03:24:22;100989.34;;;6.37;70.21
53858;BME280;39763;51.188;6.690;2023-03-15T03:25:58;100983.31;;;6.30;69.94
53858;BME280;39763;51.188;6.690;2023-03-15T03:27:29;100979.91;;;6.25;70.08
53858;BME280;39763;51.188;6.690;2023-03-15T03:29:03;100979.94;;;6.22;70.76
53858;BME280;39763;51.188;6.690;2023-03-15T03:30:37;100986.81;;;6.28;70.34
53858;BME280;39763;51.188;6.690;2023-03-15T03:32:09;100989.53;;;6.22;70.21
53858;BME280;39763;51.188;6.690;2023-03-15T03:33:41;100995.66;;;6.15;70.43
53858;BME280;39763;51.188;6.690;2023-03-15T03:35:13;100995.66;;;6.15;70.77
53858;BME280;39763;51.188;6.690;2023-03-15T03:36:46;100995.63;;;6.19;70.88
53858;BME280;39763;51.188;6.690;2023-03-15T03:38:23;101001.72;;;6.17;70.51
53858;BME280;39763;51.188;6.690;2023-03-15T03:39:59;100998.31;;;6.12;70.85
53858;BME280;39763;51.188;6.690;2023-03-15T03:41:31;100997.44;;;6.10;70.77
53858;BME280;39763;51.188;6.690;2023-03-15T03:43:02;101014.88;;;6.08;71.06
53858;BME280;39763;51.188;6.690;2023-03-15T03:44:35;101003.53;;;6.10;71.48
53858;BME280;39763;51.188;6.690;2023-03-15T03:46:08;101004.38;;;6.14;71.31
53858;BME280;39763;51.188;6.690;2023-03-15T03:47:45;101003.50;;;6.13;71.31
53858;BME280;39763;51.188;6.690;2023-03-15T03:49:21;101012.16;;;6.17;71.22
53858;BME280;39763;51.188;6.690;2023-03-15T03:50:53;101011.25;;;6.21;71.31
53858;BME280;39763;51.188;6.690;2023-03-15T03:52:24;101021.59;;;6.27;71.25
53858;BME280;39763;51.188;6.690;2023-03-15T03:54:03;101020.69;;;6.34;71.29
53858;BME280;39763;51.188;6.690;2023-03-15T03:55:35;101031.94;;;6.38;71.08
53858;BME280;39763;51.188;6.690;2023-03-15T03:57:08;101020.59;;;6.40;70.90
53858;BME280;39763;51.188;6.690;2023-03-15T03:58:40;101024.94;;;6.40;70.75
53858;BME280;39763;51.188;6.690;2023-03-15T04:00:19;101023.28;;;6.34;71.18
53858;BME280;39763;51.188;6.690;2023-03-15T04:01:53;101022.38;;;6.38;71.28
53858;BME280;39763;51.188;6.690;2023-03-15T04:03:25;101018.81;;;6.45;71.03
53858;BME280;39763;51.188;6.690;2023-03-15T04:05:09;101035.31;;;6.47;70.87
53858;BME280;39763;51.188;6.690;2023-03-15T04:06:41;101021.41;;;6.47;70.83
53858;BME280;39763;51.188;6.690;2023-03-15T04:08:19;101032.59;;;6.53;70.65
53858;BME280;39763;51.188;6.690;2023-03-15T04:09:51;101038.81;;;6.45;70.82
53858;BME280;39763;51.188;6.690;2023-03-15T04:11:23;101044.03;;;6.43;71.33
53858;BME280;39763;51.188;6.690;2023-03-15T04:13:00;101040.69;;;6.33;71.02
53858;BME280;39763;51.188;6.690;2023-03-15T04:14:33;101039.00;;;6.25;71.32
53858;BME280;39763;51.188;6.690;2023-03-15T04:16:07;101052.97;;;6.22;71.48
53858;BME280;39763;51.188;6.690;2023-03-15T04:17:55;101053.78;;;6.24;71.67
53858;BME280;39763;51.188;6.690;2023-03-15T04:19:29;101060.72;;;6.27;71.67
53858;BME280;39763;51.188;6.690;2023-03-15T04:21:01;101060.72;;;6.27;71.64
53858;BME280;39763;51.188;6.690;2023-03-15T04:22:33;101060.75;;;6.24;71.54
53858;BME280;39763;51.188;6.690;2023-03-15T04:24:19;101060.72;;;6.30;71.55
53858;BME280;39763;51.188;6.690;2023-03-15T04:26:05;101063.31;;;6.31;71.75
53858;BME280;39763;51.188;6.690;2023-03-15T04:27:55;101060.69;;;6.31;71.59
53858;BME280;39763;51.188;6.690;2023-03-15T04:29:58;101056.31;;;6.35;71.50
53858;BME280;39763;51.188;6.690;2023-03-15T04:31:54;101064.94;;;6.42;71.60
53858;BME280;39763;51.188;6.690;2023-03-15T04:33:49;101056.22;;;6.43;71.42
53858;BME280;39763;51.188;6.690;2023-03-15T04:35:38;101064.84;;;6.49;71.47
53858;BME280;39763;51.188;6.690;2023-03-15T04:37:33;101062.16;;;6.55;71.19
53858;BME280;39763;51.188;6.690;2023-03-15T04:39:21;101067.38;;;6.55;71.04
53858;BME280;39763;51.188;6.690;2023-03-15T04:41:17;101070.00;;;6.55;70.99
53858;BME280;39763;51.188;6.690;2023-03-15T04:43:09;101076.19;;;6.48;70.84
53858;BME280;39763;51.188;6.690;2023-03-15T04:44:49;101082.28;;;6.44;70.76
53858;BME280;39763;51.188;6.690;2023-03-15T04:46:32;101082.28;;;6.44;70.96
53858;BME280;39763;51.188;6.690;2023-03-15T04:48:39;101081.41;;;6.47;70.62
53858;BME280;39763;51.188;6.690;2023-03-15T04:50:33;101081.44;;;6.42;70.40
53858;BME280;39763;51.188;6.690;2023-03-15T04:52:08;101092.00;;;6.33;70.27
53858;BME280;39763;51.188;6.690;2023-03-15T04:53:53;101085.03;;;6.32;70.78
53858;BME280;39763;51.188;6.690;2023-03-15T04:55:43;101082.38;;;6.38;70.81
53858;BME280;39763;51.188;6.690;2023-03-15T04:57:39;101094.47;;;6.45;70.81
53858;BME280;39763;51.188;6.690;2023-03-15T04:59:33;101104.03;;;6.43;70.46
53858;BME280;39763;51.188;6.690;2023-03-15T05:01:24;101097.97;;;6.41;70.57
53858;BME280;39763;51.188;6.690;2023-03-15T05:03:16;101105.78;;;6.44;70.84
53858;BME280;39763;51.188;6.690;2023-03-15T05:05:06;101104.09;;;6.38;70.30
53858;BME280;39763;51.188;6.690;2023-03-15T05:06:55;101100.66;;;6.38;70.55
53858;BME280;39763;51.188;6.690;2023-03-15T05:08:47;101099.78;;;6.38;70.72
53858;BME280;39763;51.188;6.690;2023-03-15T05:10:39;101098.84;;;6.40;70.58
53858;BME280;39763;51.188;6.690;2023-03-15T05:12:21;101107.63;;;6.36;70.29
53858;BME280;39763;51.188;6.690;2023-03-15T05:14:29;101112.09;;;6.22;70.44
53858;BME280;39763;51.188;6.690;2023-03-15T05:16:12;101109.63;;;6.08;70.35
53858;BME280;39763;51.188;6.690;2023-03-15T05:18:06;101114.91;;;5.97;70.97
53858;BME280;39763;51.188;6.690;2023-03-15T05:20:07;101118.50;;;5.78;71.73
53858;BME280;39763;51.188;6.690;2023-03-15T05:22:02;101123.78;;;5.64;71.81
53858;BME280;39763;51.188;6.690;2023-03-15T05:23:52;101137.78;;;5.50;72.69
53858;BME280;39763;51.188;6.690;2023-03-15T05:25:48;101137.00;;;5.37;72.96
53858;BME280;39763;51.188;6.690;2023-03-15T05:27:28;101146.59;;;5.34;73.38
53858;BME280;39763;51.188;6.690;2023-03-15T05:29:11;101144.81;;;5.36;73.69
53858;BME280;39763;51.188;6.690;2023-03-15T05:31:01;101156.13;;;5.30;73.93
53858;BME280;39763;51.188;6.690;2023-03-15T05:32:37;101146.59;;;5.27;73.83
53858;BME280;39763;51.188;6.690;2023-03-15T05:34:28;101150.09;;;5.22;73.86
53858;BME280;39763;51.188;6.690;2023-03-15T05:36:20;101155.34;;;5.14;74.21
53858;BME280;39763;51.188;6.690;2023-03-15T05:38:02;101154.44;;;5.20;75.13
53858;BME280;39763;51.188;6.690;2023-03-15T05:39:37;101163.09;;;5.22;74.76
53858;BME280;39763;51.188;6.690;2023-03-15T05:41:19;101164.03;;;5.15;75.07
53858;BME280;39763;51.188;6.690;2023-03-15T05:43:03;101162.28;;;5.08;75.00
53858;BME280;39763;51.188;6.690;2023-03-15T05:44:57;101180.56;;;4.94;75.67
53858;BME280;39763;51.188;6.690;2023-03-15T05:47:01;101167.59;;;4.88;76.41
53858;BME280;39763;51.188;6.690;2023-03-15T05:48:59;101173.66;;;4.76;76.73
53858;BME280;39763;51.188;6.690;2023-03-15T05:50:56;101174.53;;;4.87;76.72
53858;BME280;39763;51.188;6.690;2023-03-15T05:52:54;101173.66;;;4.84;76.92
53858;BME280;39763;51.188;6.690;2023-03-15T05:55:04;101174.56;;;4.72;76.44
53858;BME280;39763;51.188;6.690;2023-03-15T05:56:47;101174.56;;;4.68;76.92
53858;BME280;39763;51.188;6.690;2023-03-15T05:58:37;101178.94;;;4.59;77.58
53858;BME280;39763;51.188;6.690;2023-03-15T06:00:35;101183.22;;;4.60;77.78
53858;BME280;39763;51.188;6.690;2023-03-15T06:02:15;101185.84;;;4.68;77.54
53858;BME280;39763;51.188;6.690;2023-03-15T06:03:55;101192.75;;;4.77;77.51
53858;BME280;39763;51.188;6.690;2023-03-15T06:05:31;101184.94;;;4.81;77.72
53858;BME280;39763;51.188;6.690;2023-03-15T06:07:06;101184.06;;;4.82;77.35
53858;BME280;39763;51.188;6.690;2023-03-15T06:08:38;101195.34;;;4.89;77.56
53858;BME280;39763;51.188;6.690;2023-03-15T06:10:11;101195.31;;;5.03;76.83
53858;BME280;39763;51.188;6.690;2023-03-15T06:11:44;101196.19;;;5.02;76.54
53858;BME280;39763;51.188;6.690;2023-03-15T06:13:17;101186.63;;;5.04;76.69
53858;BME280;39763;51.188;6.690;2023-03-15T06:14:49;101194.41;;;5.11;76.97
53858;BME280;39763;51.188;6.690;2023-03-15T06:16:21;101196.13;;;5.18;77.20
53858;BME280;39763;51.188;6.690;2023-03-15T06:17:55;101201.28;;;5.30;76.18
53858;BME280;39763;51.188;6.690;2023-03-15T06:19:27;101202.97;;;5.41;76.34
53858;BME280;39763;51.188;6.690;2023-03-15T06:20:59;101208.13;;;5.50;76.04
53858;BME280;39763;51.188;6.690;2023-03-15T06:22:31;101209.03;;;5.46;75.71
53858;BME280;39763;51.188;6.690;2023-03-15T06:24:09;101207.31;;;5.39;75.57
53858;BME280;39763;51.188;6.690;2023-03-15T06:25:42;101211.69;;;5.34;75.24
53858;BME280;39763;51.188;6.690;2023-03-15T06:27:14;101218.66;;;5.28;75.78
53858;BME280;39763;51.188;6.690;2023-03-15T06:28:45;101208.22;;;5.28;76.22
53858;BME280;39763;51.188;6.690;2023-03-15T06:30:17;101214.25;;;5.37;76.09
53858;BME280;39763;51.188;6.690;2023-03-15T06:31:53;101217.72;;;5.42;75.56
53858;BME280;39763;51.188;6.690;2023-03-15T06:33:41;101222.09;;;5.34;76.12
53858;BME280;39763;51.188;6.690;2023-03-15T06:35:23;101216.91;;;5.29;76.26
53858;BME280;39763;51.188;6.690;2023-03-15T06:36:55;101214.25;;;5.46;76.46
53858;BME280;39763;51.188;6.690;2023-03-15T06:38:26;101212.44;;;5.55;76.35
53858;BME280;39763;51.188;6.690;2023-03-15T06:39:58;101215.84;;;5.65;76.09
53858;BME280;39763;51.188;6.690;2023-03-15T06:41:32;101221.03;;;5.74;75.40
53858;BME280;39763;51.188;6.690;2023-03-15T06:43:10;101231.41;;;5.80;75.04
53858;BME280;39763;51.188;6.690;2023-03-15T06:44:50;101241.81;;;5.85;74.76
53858;BME280;39763;51.188;6.690;2023-03-15T06:46:23;101248.75;;;5.87;74.86
53858;BME280;39763;51.188;6.690;2023-03-15T06:47:55;101249.66;;;5.89;75.04
53858;BME280;39763;51.188;6.690;2023-03-15T06:49:26;101247.88;;;5.94;74.76
53858;BME280;39763;51.188;6.690;2023-03-15T06:50:58;101253.97;;;5.87;73.89
53858;BME280;39763;51.188;6.690;2023-03-15T06:52:30;101259.22;;;5.80;74.52
53858;BME280;39763;51.188;6.690;2023-03-15T06:54:02;101271.41;;;5.78;74.25
53858;BME280;39763;51.188;6.690;2023-03-15T06:55:36;101266.22;;;5.75;73.98
53858;BME280;39763;51.188;6.690;2023-03-15T06:57:10;101267.97;;;5.70;74.08
53858;BME280;39763;51.188;6.690;2023-03-15T06:58:41;101268.84;;;5.67;74.21
53858;BME280;39763;51.188;6.690;2023-03-15T07:00:13;101267.97;;;5.73;74.16
53858;BME280;39763;51.188;6.690;2023-03-15T07:01:45;101271.38;;;5.79;74.51
53858;BME280;39763;51.188;6.690;2023-03-15T07:03:17;101278.31;;;5.82;74.34
53858;BME280;39763;51.188;6.690;2023-03-15T07:04:49;101283.53;;;5.91;74.66
53858;BME280;39763;51.188;6.690;2023-03-15T07:06:21;101283.50;;;5.98;74.86
53858;BME280;39763;51.188;6.690;2023-03-15T07:07:53;101286.09;;;6.00;74.87
53858;BME280;39763;51.188;6.690;2023-03-15T07:09:25;101281.66;;;6.14;74.56
53858;BME280;39763;51.188;6.690;2023-03-15T07:10:57;101279.84;;;6.25;74.25
53858;BME280;39763;51.188;6.690;2023-03-15T07:12:30;101290.22;;;6.36;74.10
53858;BME280;39763;51.188;6.690;2023-03-15T07:14:01;101290.13;;;6.51;74.06
53858;BME280;39763;51.188;6.690;2023-03-15T07:15:34;101305.69;;;6.60;73.13
53858;BME280;39763;51.188;6.690;2023-03-15T07:17:06;101303.97;;;6.56;72.63
53858;BME280;39763;51.188;6.690;2023-03-15T07:18:38;101309.28;;;6.46;71.67
53858;BME280;39763;51.188;6.690;2023-03-15T07:20:10;101305.88;;;6.34;71.81
53858;BME280;39763;51.188;6.690;2023-03-15T07:21:42;101305.06;;;6.26;72.31
53858;BME280;39763;51.188;6.690;2023-03-15T07:23:14;101311.13;;;6.27;72.28
53858;BME280;39763;51.188;6.690;2023-03-15T07:24:45;101319.91;;;6.12;72.12
53858;BME280;39763;51.188;6.690;2023-03-15T07:26:17;101318.19;;;6.10;72.34
53858;BME280;39763;51.188;6.690;2023-03-15T07:27:50;101327.75;;;6.11;73.03
53858;BME280;39763;51.188;6.690;2023-03-15T07:29:23;101318.16;;;6.16;72.77
53858;BME280;39763;51.188;6.690;2023-03-15T07:30:56;101329.41;;;6.24;73.03
53858;BME280;39763;51.188;6.690;2023-03-15T07:32:28;101322.44;;;6.27;72.62
53858;BME280;39763;51.188;6.690;2023-03-15T07:34:01;101325.03;;;6.29;72.80
53858;BME280;39763;51.188;6.690;2023-03-15T07:35:33;101331.91;;;6.39;73.05
53858;BME280;39763;51.188;6.690;2023-03-15T07:37:04;101337.13;;;6.45;72.36
53858;BME280;39763;51.188;6.690;2023-03-15T07:38:36;101330.19;;;6.41;72.04
53858;BME280;39763;51.188;6.690;2023-03-15T07:40:10;101341.53;;;6.32;71.98
53858;BME280;39763;51.188;6.690;2023-03-15T07:41:43;101342.41;;;6.33;72.23
53858;BME280;39763;51.188;6.690;2023-03-15T07:43:25;101334.56;;;6.38;72.25
53858;BME280;39763;51.188;6.690;2023-03-15T07:45:09;101338.88;;;6.42;71.81
53858;BME280;39763;51.188;6.690;2023-03-15T07:46:41;101342.34;;;6.39;71.81
53858;BME280;39763;51.188;6.690;2023-03-15T07:48:14;101346.69;;;6.40;72.20
53858;BME280;39763;51.188;6.690;2023-03-15T07:49:46;101354.53;;;6.38;71.63
53858;BME280;39763;51.188;6.690;2023-03-15T07:51:17;101356.25;;;6.41;71.79
53858;BME280;39763;51.188;6.690;2023-03-15T07:52:49;101362.34;;;6.46;71.72
53858;BME280;39763;51.188;6.690;2023-03-15T07:54:21;101358.00;;;6.41;70.89
53858;BME280;39763;51.188;6.690;2023-03-15T07:55:58;101363.28;;;6.30;71.04
53858;BME280;39763;51.188;6.690;2023-03-15T07:57:30;101365.03;;;6.28;71.22
53858;BME280;39763;51.188;6.690;2023-03-15T07:59:03;101366.75;;;6.36;71.85
53858;BME280;39763;51.188;6.690;2023-03-15T08:00:35;101366.69;;;6.47;71.34
53858;BME280;39763;51.188;6.690;2023-03-15T08:02:08;101370.16;;;6.49;70.98
53858;BME280;39763;51.188;6.690;2023-03-15T08:03:40;101373.53;;;6.63;71.45
53858;BME280;39763;51.188;6.690;2023-03-15T08:05:12;101381.25;;;6.79;70.60
53858;BME280;39763;51.188;6.690;2023-03-15T08:06:43;101375.09;;;6.86;70.60
53858;BME280;39763;51.188;6.690;2023-03-15T08:08:15;101379.38;;;6.96;70.33
53858;BME280;39763;51.188;6.690;2023-03-15T08:09:47;101384.63;;;6.94;69.82
53858;BME280;39763;51.188;6.690;2023-03-15T08:11:18;101387.25;;;6.94;69.86
53858;BME280;39763;51.188;6.690;2023-03-15T08:12:50;101386.28;;;7.03;69.95
53858;BME280;39763;51.188;6.690;2023-03-15T08:14:23;101399.34;;;7.03;69.15
53858;BME280;39763;51.188;6.690;2023-03-15T08:15:55;101396.75;;;7.01;69.58
53858;BME280;39763;51.188;6.690;2023-03-15T08:17:27;101392.41;;;6.99;68.78
53858;BME280;39763;51.188;6.690;2023-03-15T08:18:58;101402.03;;;6.92;68.56
53858;BME280;39763;51.188;6.690;2023-03-15T08:20:30;101392.56;;;6.82;68.69
53858;BME280;39763;51.188;6.690;2023-03-15T08:22:04;101399.53;;;6.79;68.87
53858;BME280;39763;51.188;6.690;2023-03-15T08:23:35;101403.03;;;6.78;68.83
53858;BME280;39763;51.188;6.690;2023-03-15T08:25:07;101411.66;;;6.83;68.46
53858;BME280;39763;51.188;6.690;2023-03-15T08:26:39;101407.31;;;6.85;68.25
53858;BME280;39763;51.188;6.690;2023-03-15T08:28:13;101417.75;;;6.85;68.37
53858;BME280;39763;51.188;6.690;2023-03-15T08:29:46;101417.69;;;6.95;68.59
53858;BME280;39763;51.188;6.690;2023-03-15T08:31:18;101415.78;;;7.14;69.05